Terminal Aerodrome Forecast
Issued by NWS Grand Rapids, MI

Home | Current Version | Previous Version | Text Only | Print | Product List | Glossary On
Versions: 1 2 3 4 5 6 7 8 9 10 11 12 13 14 15 16 17 18 19 20 21 22 23 24 25 26 27 28 29 30 31 32 33 34
583
FTUS43 KGRR 240412 AAB
TAFGRR
TAF AMD
KGRR 240412Z 2404/2424 06010KT P6SM -SHRA OVC040
     FM240700 06009KT P6SM VCSH OVC025
     FM240900 06012KT 4SM -RA HZ OVC009
     FM241600 07011KT 1 1/2SM -RA BR OVC004
     FM242100 07010KT 1SM -RA BR OVC002=

USA.gov is the U.S. government's official web portal to all federal, state and local government web resources and services.